sensor_id;sensor_type;location;lat;lon;timestamp;P1;durP1;ratioP1;P2;durP2;ratioP2
74658;SDS011;63186;51.204;6.536;2023-09-08T00:01:11;9.80;;;5.10;;
74658;SDS011;63186;51.204;6.536;2023-09-08T00:03:36;9.60;;;5.27;;
74658;SDS011;63186;51.204;6.536;2023-09-08T00:06:01;9.63;;;5.23;;
74658;SDS011;63186;51.204;6.536;2023-09-08T00:08:27;9.13;;;5.33;;
74658;SDS011;63186;51.204;6.536;2023-09-08T00:10:52;10.37;;;5.50;;
74658;SDS011;63186;51.204;6.536;2023-09-08T00:13:17;11.03;;;5.67;;
74658;SDS011;63186;51.204;6.536;2023-09-08T00:15:42;9.67;;;5.00;;
74658;SDS011;63186;51.204;6.536;2023-09-08T00:18:08;9.47;;;4.97;;
74658;SDS011;63186;51.204;6.536;2023-09-08T00:20:33;10.40;;;5.30;;
74658;SDS011;63186;51.204;6.536;2023-09-08T00:22:59;10.30;;;5.28;;
74658;SDS011;63186;51.204;6.536;2023-09-08T00:25:24;8.97;;;5.10;;
74658;SDS011;63186;51.204;6.536;2023-09-08T00:27:50;10.07;;;5.07;;
74658;SDS011;63186;51.204;6.536;2023-09-08T00:30:15;10.50;;;5.43;;
74658;SDS011;63186;51.204;6.536;2023-09-08T00:32:40;9.03;;;4.77;;
74658;SDS011;63186;51.204;6.536;2023-09-08T00:35:06;9.23;;;4.43;;
74658;SDS011;63186;51.204;6.536;2023-09-08T00:37:33;9.77;;;4.55;;
74658;SDS011;63186;51.204;6.536;2023-09-08T00:39:58;10.82;;;5.00;;
74658;SDS011;63186;51.204;6.536;2023-09-08T00:42:23;9.63;;;4.77;;
74658;SDS011;63186;51.204;6.536;2023-09-08T00:44:48;9.07;;;4.67;;
74658;SDS011;63186;51.204;6.536;2023-09-08T00:47:14;10.13;;;5.03;;
74658;SDS011;63186;51.204;6.536;2023-09-08T00:49:40;9.82;;;5.32;;
74658;SDS011;63186;51.204;6.536;2023-09-08T00:52:05;8.33;;;4.37;;
74658;SDS011;63186;51.204;6.536;2023-09-08T00:54:31;8.98;;;4.63;;
74658;SDS011;63186;51.204;6.536;2023-09-08T00:56:56;8.20;;;4.60;;
74658;SDS011;63186;51.204;6.536;2023-09-08T00:59:22;10.55;;;4.90;;
74658;SDS011;63186;51.204;6.536;2023-09-08T01:01:47;9.48;;;5.28;;
74658;SDS011;63186;51.204;6.536;2023-09-08T01:04:13;8.13;;;4.40;;
74658;SDS011;63186;51.204;6.536;2023-09-08T01:06:38;11.97;;;5.13;;
74658;SDS011;63186;51.204;6.536;2023-09-08T01:09:03;9.13;;;4.57;;
74658;SDS011;63186;51.204;6.536;2023-09-08T01:11:30;9.73;;;4.47;;
74658;SDS011;63186;51.204;6.536;2023-09-08T01:13:55;8.65;;;4.32;;
74658;SDS011;63186;51.204;6.536;2023-09-08T01:16:21;8.33;;;4.73;;
74658;SDS011;63186;51.204;6.536;2023-09-08T01:18:46;9.03;;;4.43;;
74658;SDS011;63186;51.204;6.536;2023-09-08T01:21:18;9.73;;;4.45;;
74658;SDS011;63186;51.204;6.536;2023-09-08T01:26:57;10.43;;;4.63;;
74658;SDS011;63186;51.204;6.536;2023-09-08T01:29:23;9.75;;;4.90;;
74658;SDS011;63186;51.204;6.536;2023-09-08T01:31:50;9.52;;;4.72;;
74658;SDS011;63186;51.204;6.536;2023-09-08T01:34:16;8.23;;;4.22;;
74658;SDS011;63186;51.204;6.536;2023-09-08T01:36:41;10.50;;;4.47;;
74658;SDS011;63186;51.204;6.536;2023-09-08T01:39:07;9.93;;;4.60;;
74658;SDS011;63186;51.204;6.536;2023-09-08T01:41:32;8.27;;;4.50;;
74658;SDS011;63186;51.204;6.536;2023-09-08T01:43:58;7.30;;;4.17;;
74658;SDS011;63186;51.204;6.536;2023-09-08T01:46:24;7.80;;;4.30;;
74658;SDS011;63186;51.204;6.536;2023-09-08T01:48:49;8.60;;;4.13;;
74658;SDS011;63186;51.204;6.536;2023-09-08T01:51:15;8.10;;;4.43;;
74658;SDS011;63186;51.204;6.536;2023-09-08T01:53:40;8.00;;;4.20;;
74658;SDS011;63186;51.204;6.536;2023-09-08T01:56:05;9.60;;;4.37;;
74658;SDS011;63186;51.204;6.536;2023-09-08T01:58:31;7.60;;;3.78;;
74658;SDS011;63186;51.204;6.536;2023-09-08T02:00:57;8.13;;;4.30;;
74658;SDS011;63186;51.204;6.536;2023-09-08T02:03:26;8.00;;;4.03;;
74658;SDS011;63186;51.204;6.536;2023-09-08T02:05:51;8.63;;;4.63;;
74658;SDS011;63186;51.204;6.536;2023-09-08T02:08:17;9.97;;;4.50;;
74658;SDS011;63186;51.204;6.536;2023-09-08T02:10:42;10.03;;;5.07;;
74658;SDS011;63186;51.204;6.536;2023-09-08T02:13:07;9.17;;;4.50;;
74658;SDS011;63186;51.204;6.536;2023-09-08T02:15:34;9.37;;;4.37;;
74658;SDS011;63186;51.204;6.536;2023-09-08T02:18:00;9.25;;;4.78;;
74658;SDS011;63186;51.204;6.536;2023-09-08T02:20:25;9.53;;;4.60;;
74658;SDS011;63186;51.204;6.536;2023-09-08T02:22:53;9.20;;;4.63;;
74658;SDS011;63186;51.204;6.536;2023-09-08T02:25:19;8.75;;;4.28;;
74658;SDS011;63186;51.204;6.536;2023-09-08T02:27:44;9.57;;;4.30;;
74658;SDS011;63186;51.204;6.536;2023-09-08T02:30:09;9.40;;;4.83;;
74658;SDS011;63186;51.204;6.536;2023-09-08T02:32:35;10.07;;;4.65;;
74658;SDS011;63186;51.204;6.536;2023-09-08T02:35:00;9.93;;;5.00;;
74658;SDS011;63186;51.204;6.536;2023-09-08T02:40:01;10.25;;;5.10;;
74658;SDS011;63186;51.204;6.536;2023-09-08T02:42:27;8.73;;;4.13;;
74658;SDS011;63186;51.204;6.536;2023-09-08T02:44:52;8.87;;;4.37;;
74658;SDS011;63186;51.204;6.536;2023-09-08T02:47:17;9.33;;;4.80;;
74658;SDS011;63186;51.204;6.536;2023-09-08T02:49:42;10.40;;;4.87;;
74658;SDS011;63186;51.204;6.536;2023-09-08T02:52:08;8.95;;;4.47;;
74658;SDS011;63186;51.204;6.536;2023-09-08T02:54:33;11.50;;;5.90;;
74658;SDS011;63186;51.204;6.536;2023-09-08T02:56:59;9.77;;;5.23;;
74658;SDS011;63186;51.204;6.536;2023-09-08T02:59:24;9.63;;;4.97;;
74658;SDS011;63186;51.204;6.536;2023-09-08T03:01:49;11.63;;;5.17;;
74658;SDS011;63186;51.204;6.536;2023-09-08T03:04:14;10.30;;;5.10;;
74658;SDS011;63186;51.204;6.536;2023-09-08T03:06:40;12.13;;;5.30;;
74658;SDS011;63186;51.204;6.536;2023-09-08T03:09:05;10.13;;;5.23;;
74658;SDS011;63186;51.204;6.536;2023-09-08T03:11:30;9.33;;;5.10;;
74658;SDS011;63186;51.204;6.536;2023-09-08T03:13:55;9.20;;;5.00;;
74658;SDS011;63186;51.204;6.536;2023-09-08T03:16:21;10.00;;;4.83;;
74658;SDS011;63186;51.204;6.536;2023-09-08T03:18:46;12.20;;;5.60;;
74658;SDS011;63186;51.204;6.536;2023-09-08T03:21:13;10.60;;;5.47;;
74658;SDS011;63186;51.204;6.536;2023-09-08T03:23:40;9.75;;;4.72;;
74658;SDS011;63186;51.204;6.536;2023-09-08T03:26:07;10.02;;;4.85;;
74658;SDS011;63186;51.204;6.536;2023-09-08T03:28:33;8.75;;;4.95;;
74658;SDS011;63186;51.204;6.536;2023-09-08T03:31:02;9.75;;;4.57;;
74658;SDS011;63186;51.204;6.536;2023-09-08T03:35:53;8.60;;;4.77;;
74658;SDS011;63186;51.204;6.536;2023-09-08T03:38:18;8.70;;;5.17;;
74658;SDS011;63186;51.204;6.536;2023-09-08T03:40:44;9.60;;;5.13;;
74658;SDS011;63186;51.204;6.536;2023-09-08T03:43:09;11.68;;;5.28;;
74658;SDS011;63186;51.204;6.536;2023-09-08T03:45:35;9.20;;;5.07;;
74658;SDS011;63186;51.204;6.536;2023-09-08T03:48:00;9.68;;;5.13;;
74658;SDS011;63186;51.204;6.536;2023-09-08T03:50:25;8.97;;;4.83;;
74658;SDS011;63186;51.204;6.536;2023-09-08T03:52:51;10.95;;;5.05;;
74658;SDS011;63186;51.204;6.536;2023-09-08T03:55:16;12.63;;;5.93;;
74658;SDS011;63186;51.204;6.536;2023-09-08T03:57:42;10.90;;;6.70;;
74658;SDS011;63186;51.204;6.536;2023-09-08T04:00:07;12.18;;;6.90;;
74658;SDS011;63186;51.204;6.536;2023-09-08T04:02:35;10.98;;;5.40;;
74658;SDS011;63186;51.204;6.536;2023-09-08T04:05:00;9.90;;;4.83;;
74658;SDS011;63186;51.204;6.536;2023-09-08T04:07:26;10.97;;;5.27;;
74658;SDS011;63186;51.204;6.536;2023-09-08T04:09:51;10.30;;;5.00;;
74658;SDS011;63186;51.204;6.536;2023-09-08T04:12:16;11.93;;;5.40;;
74658;SDS011;63186;51.204;6.536;2023-09-08T04:14:41;11.67;;;5.77;;
74658;SDS011;63186;51.204;6.536;2023-09-08T04:17:07;9.20;;;5.20;;
74658;SDS011;63186;51.204;6.536;2023-09-08T04:19:33;11.23;;;6.07;;
74658;SDS011;63186;51.204;6.536;2023-09-08T04:21:58;10.43;;;5.43;;
74658;SDS011;63186;51.204;6.536;2023-09-08T04:24:23;13.57;;;5.90;;
74658;SDS011;63186;51.204;6.536;2023-09-08T04:26:48;10.17;;;5.37;;
74658;SDS011;63186;51.204;6.536;2023-09-08T04:29:14;9.10;;;5.47;;
74658;SDS011;63186;51.204;6.536;2023-09-08T04:31:39;11.70;;;5.53;;
74658;SDS011;63186;51.204;6.536;2023-09-08T04:34:04;9.40;;;5.43;;
74658;SDS011;63186;51.204;6.536;2023-09-08T04:36:29;10.77;;;5.23;;
74658;SDS011;63186;51.204;6.536;2023-09-08T04:38:55;9.68;;;5.60;;
74658;SDS011;63186;51.204;6.536;2023-09-08T04:41:21;12.45;;;5.75;;
74658;SDS011;63186;51.204;6.536;2023-09-08T04:43:46;10.88;;;5.70;;
74658;SDS011;63186;51.204;6.536;2023-09-08T04:46:12;11.40;;;5.37;;
74658;SDS011;63186;51.204;6.536;2023-09-08T04:48:37;14.60;;;6.17;;
74658;SDS011;63186;51.204;6.536;2023-09-08T04:51:02;9.70;;;5.22;;
74658;SDS011;63186;51.204;6.536;2023-09-08T04:53:28;12.33;;;4.83;;
74658;SDS011;63186;51.204;6.536;2023-09-08T04:55:53;9.07;;;5.03;;
74658;SDS011;63186;51.204;6.536;2023-09-08T04:58:18;9.53;;;4.83;;
74658;SDS011;63186;51.204;6.536;2023-09-08T05:00:43;10.63;;;5.17;;
74658;SDS011;63186;51.204;6.536;2023-09-08T05:03:09;11.60;;;5.93;;
74658;SDS011;63186;51.204;6.536;2023-09-08T05:05:34;10.77;;;5.43;;
74658;SDS011;63186;51.204;6.536;2023-09-08T05:07:59;9.87;;;4.93;;
74658;SDS011;63186;51.204;6.536;2023-09-08T05:10:25;11.60;;;5.57;;
74658;SDS011;63186;51.204;6.536;2023-09-08T05:12:50;10.52;;;5.25;;
74658;SDS011;63186;51.204;6.536;2023-09-08T05:15:17;10.05;;;5.05;;
74658;SDS011;63186;51.204;6.536;2023-09-08T05:17:45;10.23;;;4.90;;
74658;SDS011;63186;51.204;6.536;2023-09-08T05:20:11;13.60;;;5.03;;
74658;SDS011;63186;51.204;6.536;2023-09-08T05:22:36;9.87;;;5.27;;
74658;SDS011;63186;51.204;6.536;2023-09-08T05:25:01;10.07;;;5.23;;
74658;SDS011;63186;51.204;6.536;2023-09-08T05:27:27;9.98;;;5.60;;
74658;SDS011;63186;51.204;6.536;2023-09-08T05:29:52;9.20;;;5.03;;
74658;SDS011;63186;51.204;6.536;2023-09-08T05:32:17;11.50;;;5.17;;
74658;SDS011;63186;51.204;6.536;2023-09-08T05:34:43;9.47;;;4.50;;
74658;SDS011;63186;51.204;6.536;2023-09-08T05:37:08;11.17;;;4.63;;
74658;SDS011;63186;51.204;6.536;2023-09-08T05:39:33;10.38;;;4.90;;
74658;SDS011;63186;51.204;6.536;2023-09-08T05:41:59;12.73;;;5.55;;
74658;SDS011;63186;51.204;6.536;2023-09-08T05:44:24;9.93;;;5.03;;
74658;SDS011;63186;51.204;6.536;2023-09-08T05:46:50;11.32;;;5.65;;
74658;SDS011;63186;51.204;6.536;2023-09-08T05:49:15;9.98;;;5.20;;
74658;SDS011;63186;51.204;6.536;2023-09-08T05:51:40;11.10;;;4.82;;
74658;SDS011;63186;51.204;6.536;2023-09-08T05:54:06;9.53;;;5.63;;
74658;SDS011;63186;51.204;6.536;2023-09-08T05:56:31;10.77;;;5.78;;
74658;SDS011;63186;51.204;6.536;2023-09-08T05:59:01;10.25;;;5.30;;
74658;SDS011;63186;51.204;6.536;2023-09-08T06:03:52;8.57;;;4.40;;
74658;SDS011;63186;51.204;6.536;2023-09-08T06:06:17;9.75;;;4.65;;
74658;SDS011;63186;51.204;6.536;2023-09-08T06:08:42;9.50;;;4.87;;
74658;SDS011;63186;51.204;6.536;2023-09-08T06:11:08;9.53;;;4.80;;
74658;SDS011;63186;51.204;6.536;2023-09-08T06:13:33;9.00;;;4.57;;
74658;SDS011;63186;51.204;6.536;2023-09-08T06:15:58;8.20;;;4.25;;
74658;SDS011;63186;51.204;6.536;2023-09-08T06:18:23;9.90;;;4.93;;
74658;SDS011;63186;51.204;6.536;2023-09-08T06:20:49;7.50;;;4.10;;
74658;SDS011;63186;51.204;6.536;2023-09-08T06:23:14;8.90;;;4.17;;
74658;SDS011;63186;51.204;6.536;2023-09-08T06:25:40;8.65;;;4.07;;
74658;SDS011;63186;51.204;6.536;2023-09-08T06:28:06;8.93;;;4.95;;
74658;SDS011;63186;51.204;6.536;2023-09-08T06:30:31;9.27;;;5.22;;
74658;SDS011;63186;51.204;6.536;2023-09-08T06:32:56;9.57;;;4.63;;
74658;SDS011;63186;51.204;6.536;2023-09-08T06:35:22;8.68;;;4.32;;
74658;SDS011;63186;51.204;6.536;2023-09-08T06:37:47;8.43;;;4.27;;
74658;SDS011;63186;51.204;6.536;2023-09-08T06:40:12;9.43;;;4.60;;
74658;SDS011;63186;51.204;6.536;2023-09-08T06:42:37;9.60;;;4.47;;
74658;SDS011;63186;51.204;6.536;2023-09-08T06:45:03;10.37;;;4.40;;
74658;SDS011;63186;51.204;6.536;2023-09-08T06:47:28;7.55;;;3.97;;
74658;SDS011;63186;51.204;6.536;2023-09-08T06:49:54;8.73;;;3.80;;
74658;SDS011;63186;51.204;6.536;2023-09-08T06:52:19;7.63;;;4.10;;
74658;SDS011;63186;51.204;6.536;2023-09-08T06:54:44;8.43;;;4.18;;
74658;SDS011;63186;51.204;6.536;2023-09-08T06:57:13;8.20;;;4.55;;
74658;SDS011;63186;51.204;6.536;2023-09-08T06:59:38;7.05;;;3.38;;
74658;SDS011;63186;51.204;6.536;2023-09-08T07:02:04;8.25;;;3.65;;
74658;SDS011;63186;51.204;6.536;2023-09-08T07:04:29;7.93;;;4.13;;
74658;SDS011;63186;51.204;6.536;2023-09-08T07:06:55;8.48;;;3.83;;
74658;SDS011;63186;51.204;6.536;2023-09-08T07:09:20;10.03;;;4.90;;
74658;SDS011;63186;51.204;6.536;2023-09-08T07:11:45;10.20;;;4.60;;
74658;SDS011;63186;51.204;6.536;2023-09-08T07:14:11;8.98;;;3.75;;
74658;SDS011;63186;51.204;6.536;2023-09-08T07:16:37;9.50;;;4.22;;
74658;SDS011;63186;51.204;6.536;2023-09-08T07:19:02;9.43;;;4.27;;
74658;SDS011;63186;51.204;6.536;2023-09-08T07:21:27;7.97;;;3.47;;
74658;SDS011;63186;51.204;6.536;2023-09-08T07:23:53;7.63;;;3.93;;
74658;SDS011;63186;51.204;6.536;2023-09-08T07:26:19;8.32;;;4.65;;
74658;SDS011;63186;51.204;6.536;2023-09-08T07:28:44;11.45;;;4.30;;
74658;SDS011;63186;51.204;6.536;2023-09-08T07:31:10;8.40;;;4.15;;
74658;SDS011;63186;51.204;6.536;2023-09-08T07:33:36;8.10;;;3.95;;
74658;SDS011;63186;51.204;6.536;2023-09-08T07:36:05;8.90;;;3.93;;
74658;SDS011;63186;51.204;6.536;2023-09-08T07:38:31;7.85;;;3.85;;
74658;SDS011;63186;51.204;6.536;2023-09-08T07:40:56;8.00;;;4.30;;
74658;SDS011;63186;51.204;6.536;2023-09-08T07:43:21;8.17;;;4.10;;
74658;SDS011;63186;51.204;6.536;2023-09-08T07:45:47;9.63;;;4.60;;
74658;SDS011;63186;51.204;6.536;2023-09-08T07:48:12;7.93;;;3.90;;
74658;SDS011;63186;51.204;6.536;2023-09-08T07:50:37;9.33;;;3.80;;
74658;SDS011;63186;51.204;6.536;2023-09-08T07:53:02;8.10;;;3.95;;
74658;SDS011;63186;51.204;6.536;2023-09-08T07:55:28;7.30;;;4.03;;
74658;SDS011;63186;51.204;6.536;2023-09-08T07:57:54;6.60;;;3.45;;
74658;SDS011;63186;51.204;6.536;2023-09-08T08:00:20;9.07;;;3.85;;
74658;SDS011;63186;51.204;6.536;2023-09-08T08:02:46;9.93;;;3.80;;
74658;SDS011;63186;51.204;6.536;2023-09-08T08:05:13;8.52;;;3.80;;
74658;SDS011;63186;51.204;6.536;2023-09-08T08:07:39;9.90;;;4.18;;
74658;SDS011;63186;51.204;6.536;2023-09-08T08:10:05;7.38;;;3.85;;
74658;SDS011;63186;51.204;6.536;2023-09-08T08:12:31;11.80;;;4.38;;
74658;SDS011;63186;51.204;6.536;2023-09-08T08:14:57;8.95;;;4.20;;
74658;SDS011;63186;51.204;6.536;2023-09-08T08:17:23;7.97;;;3.80;;
74658;SDS011;63186;51.204;6.536;2023-09-08T08:19:49;7.50;;;3.97;;
74658;SDS011;63186;51.204;6.536;2023-09-08T08:22:14;8.90;;;3.95;;
74658;SDS011;63186;51.204;6.536;2023-09-08T08:24:39;10.07;;;4.23;;
74658;SDS011;63186;51.204;6.536;2023-09-08T08:27:05;7.60;;;3.67;;
74658;SDS011;63186;51.204;6.536;2023-09-08T08:29:30;8.50;;;4.13;;
74658;SDS011;63186;51.204;6.536;2023-09-08T08:31:56;8.30;;;4.07;;
74658;SDS011;63186;51.204;6.536;2023-09-08T08:34:21;10.87;;;4.47;;
74658;SDS011;63186;51.204;6.536;2023-09-08T08:36:46;7.97;;;3.63;;
74658;SDS011;63186;51.204;6.536;2023-09-08T08:39:11;6.93;;;3.80;;
74658;SDS011;63186;51.204;6.536;2023-09-08T08:41:37;8.63;;;4.07;;
74658;SDS011;63186;51.204;6.536;2023-09-08T08:44:07;8.63;;;3.80;;
74658;SDS011;63186;51.204;6.536;2023-09-08T08:46:36;9.88;;;4.32;;
74658;SDS011;63186;51.204;6.536;2023-09-08T08:49:02;7.18;;;3.97;;
74658;SDS011;63186;51.204;6.536;2023-09-08T08:51:29;6.90;;;3.35;;
74658;SDS011;63186;51.204;6.536;2023-09-08T08:53:56;7.97;;;3.60;;
74658;SDS011;63186;51.204;6.536;2023-09-08T08:56:22;9.43;;;3.85;;
74658;SDS011;63186;51.204;6.536;2023-09-08T08:58:48;8.30;;;3.90;;
74658;SDS011;63186;51.204;6.536;2023-09-08T09:01:15;8.35;;;4.20;;
74658;SDS011;63186;51.204;6.536;2023-09-08T09:03:41;7.90;;;3.60;;
74658;SDS011;63186;51.204;6.536;2023-09-08T09:06:07;9.02;;;3.83;;
74658;SDS011;63186;51.204;6.536;2023-09-08T09:08:35;8.75;;;4.15;;
74658;SDS011;63186;51.204;6.536;2023-09-08T09:11:02;7.55;;;4.22;;
74658;SDS011;63186;51.204;6.536;2023-09-08T09:13:27;7.87;;;3.93;;
74658;SDS011;63186;51.204;6.536;2023-09-08T09:15:53;7.60;;;4.47;;
74658;SDS011;63186;51.204;6.536;2023-09-08T09:18:23;8.45;;;4.30;;
74658;SDS011;63186;51.204;6.536;2023-09-08T09:20:55;7.43;;;3.53;;
74658;SDS011;63186;51.204;6.536;2023-09-08T09:23:31;12.63;;;4.32;;
74658;SDS011;63186;51.204;6.536;2023-09-08T09:25:58;7.35;;;3.85;;
74658;SDS011;63186;51.204;6.536;2023-09-08T09:28:24;6.78;;;3.42;;
74658;SDS011;63186;51.204;6.536;2023-09-08T09:30:51;8.98;;;3.85;;
74658;SDS011;63186;51.204;6.536;2023-09-08T09:33:19;7.18;;;3.85;;
74658;SDS011;63186;51.204;6.536;2023-09-08T09:35:49;9.65;;;3.97;;
74658;SDS011;63186;51.204;6.536;2023-09-08T09:38:16;7.72;;;3.75;;
74658;SDS011;63186;51.204;6.536;2023-09-08T09:40:43;8.40;;;4.25;;
74658;SDS011;63186;51.204;6.536;2023-09-08T09:43:09;7.07;;;3.72;;
74658;SDS011;63186;51.204;6.536;2023-09-08T09:45:37;8.20;;;3.65;;
74658;SDS011;63186;51.204;6.536;2023-09-08T09:48:03;8.65;;;4.00;;
74658;SDS011;63186;51.204;6.536;2023-09-08T09:50:33;7.70;;;3.92;;
74658;SDS011;63186;51.204;6.536;2023-09-08T09:53:00;8.68;;;4.38;;
74658;SDS011;63186;51.204;6.536;2023-09-08T09:55:27;8.63;;;4.10;;
74658;SDS011;63186;51.204;6.536;2023-09-08T09:57:57;7.68;;;3.83;;
74658;SDS011;63186;51.204;6.536;2023-09-08T10:00:25;9.27;;;4.38;;
74658;SDS011;63186;51.204;6.536;2023-09-08T10:02:52;8.32;;;3.78;;
74658;SDS011;63186;51.204;6.536;2023-09-08T10:05:18;7.50;;;3.60;;
74658;SDS011;63186;51.204;6.536;2023-09-08T10:07:45;7.63;;;3.73;;
74658;SDS011;63186;51.204;6.536;2023-09-08T10:10:13;11.40;;;4.03;;
74658;SDS011;63186;51.204;6.536;2023-09-08T10:12:39;10.93;;;4.45;;
74658;SDS011;63186;51.204;6.536;2023-09-08T10:15:09;7.82;;;3.95;;
74658;SDS011;63186;51.204;6.536;2023-09-08T10:17:35;8.13;;;3.63;;
74658;SDS011;63186;51.204;6.536;2023-09-08T10:20:02;9.07;;;4.43;;
74658;SDS011;63186;51.204;6.536;2023-09-08T10:22:36;9.35;;;3.90;;
74658;SDS011;63186;51.204;6.536;2023-09-08T10:25:03;9.10;;;3.85;;
74658;SDS011;63186;51.204;6.536;2023-09-08T10:27:30;7.15;;;3.88;;
74658;SDS011;63186;51.204;6.536;2023-09-08T10:29:57;8.63;;;4.22;;
74658;SDS011;63186;51.204;6.536;2023-09-08T10:32:26;8.27;;;4.15;;
74658;SDS011;63186;51.204;6.536;2023-09-08T10:34:52;8.68;;;3.58;;
74658;SDS011;63186;51.204;6.536;2023-09-08T10:37:22;8.65;;;4.10;;
74658;SDS011;63186;51.204;6.536;2023-09-08T10:39:54;8.32;;;4.13;;
74658;SDS011;63186;51.204;6.536;2023-09-08T10:42:20;8.18;;;3.78;;
74658;SDS011;63186;51.204;6.536;2023-09-08T10:47:19;11.47;;;4.20;;
74658;SDS011;63186;51.204;6.536;2023-09-08T10:49:47;8.32;;;3.90;;
74658;SDS011;63186;51.204;6.536;2023-09-08T10:52:12;8.47;;;4.37;;
74658;SDS011;63186;51.204;6.536;2023-09-08T10:57:25;7.22;;;4.00;;
74658;SDS011;63186;51.204;6.536;2023-09-08T11:05:08;7.00;;;4.15;;
74658;SDS011;63186;51.204;6.536;2023-09-08T11:07:38;8.00;;;3.90;;
74658;SDS011;63186;51.204;6.536;2023-09-08T11:10:05;11.68;;;4.40;;
74658;SDS011;63186;51.204;6.536;2023-09-08T11:12:31;7.85;;;4.60;;
74658;SDS011;63186;51.204;6.536;2023-09-08T11:14:58;6.85;;;3.55;;
74658;SDS011;63186;51.204;6.536;2023-09-08T11:17:29;7.95;;;3.80;;
74658;SDS011;63186;51.204;6.536;2023-09-08T11:19:55;7.68;;;3.78;;
74658;SDS011;63186;51.204;6.536;2023-09-08T11:22:21;8.25;;;4.38;;
74658;SDS011;63186;51.204;6.536;2023-09-08T11:24:49;9.93;;;4.50;;
74658;SDS011;63186;51.204;6.536;2023-09-08T11:27:16;8.85;;;3.78;;
74658;SDS011;63186;51.204;6.536;2023-09-08T11:29:42;7.43;;;3.80;;
74658;SDS011;63186;51.204;6.536;2023-09-08T11:32:09;6.97;;;3.85;;
74658;SDS011;63186;51.204;6.536;2023-09-08T11:34:35;7.30;;;3.90;;
74658;SDS011;63186;51.204;6.536;2023-09-08T11:37:05;9.07;;;4.25;;
74658;SDS011;63186;51.204;6.536;2023-09-08T11:39:41;8.82;;;4.00;;
74658;SDS011;63186;51.204;6.536;2023-09-08T11:42:08;7.72;;;4.10;;
74658;SDS011;63186;51.204;6.536;2023-09-08T11:44:36;8.75;;;4.00;;
74658;SDS011;63186;51.204;6.536;2023-09-08T11:47:02;10.55;;;4.60;;
74658;SDS011;63186;51.204;6.536;2023-09-08T11:49:36;9.70;;;4.40;;
74658;SDS011;63186;51.204;6.536;2023-09-08T11:52:06;8.77;;;4.40;;
74658;SDS011;63186;51.204;6.536;2023-09-08T11:54:32;8.20;;;4.07;;
74658;SDS011;63186;51.204;6.536;2023-09-08T12:01:53;7.28;;;3.70;;
74658;SDS011;63186;51.204;6.536;2023-09-08T12:04:19;8.57;;;3.92;;
74658;SDS011;63186;51.204;6.536;2023-09-08T12:06:45;7.30;;;3.90;;
74658;SDS011;63186;51.204;6.536;2023-09-08T12:09:11;8.80;;;4.15;;
74658;SDS011;63186;51.204;6.536;2023-09-08T12:11:37;8.45;;;4.22;;
74658;SDS011;63186;51.204;6.536;2023-09-08T12:14:07;8.18;;;3.97;;
74658;SDS011;63186;51.204;6.536;2023-09-08T12:16:33;7.80;;;4.13;;
74658;SDS011;63186;51.204;6.536;2023-09-08T12:18:59;7.47;;;3.67;;
74658;SDS011;63186;51.204;6.536;2023-09-08T12:21:24;8.53;;;4.47;;
74658;SDS011;63186;51.204;6.536;2023-09-08T12:23:50;9.53;;;4.07;;
74658;SDS011;63186;51.204;6.536;2023-09-08T12:26:16;10.00;;;4.00;;
74658;SDS011;63186;51.204;6.536;2023-09-08T12:28:42;8.30;;;3.80;;
74658;SDS011;63186;51.204;6.536;2023-09-08T12:31:08;7.70;;;3.92;;
74658;SDS011;63186;51.204;6.536;2023-09-08T12:33:34;7.78;;;4.07;;
74658;SDS011;63186;51.204;6.536;2023-09-08T12:36:09;7.43;;;4.30;;
74658;SDS011;63186;51.204;6.536;2023-09-08T12:38:49;10.18;;;3.90;;
74658;SDS011;63186;51.204;6.536;2023-09-08T12:41:16;7.80;;;3.83;;
74658;SDS011;63186;51.204;6.536;2023-09-08T12:43:42;7.07;;;3.55;;
74658;SDS011;63186;51.204;6.536;2023-09-08T12:46:07;8.07;;;3.80;;
74658;SDS011;63186;51.204;6.536;2023-09-08T12:48:32;8.40;;;4.00;;
74658;SDS011;63186;51.204;6.536;2023-09-08T12:50:58;12.80;;;4.30;;
74658;SDS011;63186;51.204;6.536;2023-09-08T12:53:23;9.57;;;4.35;;
74658;SDS011;63186;51.204;6.536;2023-09-08T12:55:48;13.52;;;4.20;;
74658;SDS011;63186;51.204;6.536;2023-09-08T12:58:14;7.53;;;3.90;;
74658;SDS011;63186;51.204;6.536;2023-09-08T13:00:39;29.73;;;6.93;;
74658;SDS011;63186;51.204;6.536;2023-09-08T13:03:05;9.57;;;3.90;;
74658;SDS011;63186;51.204;6.536;2023-09-08T13:05:30;8.80;;;4.43;;
74658;SDS011;63186;51.204;6.536;2023-09-08T13:07:56;7.40;;;3.72;;
74658;SDS011;63186;51.204;6.536;2023-09-08T13:10:21;8.93;;;3.90;;
74658;SDS011;63186;51.204;6.536;2023-09-08T13:12:46;12.98;;;5.07;;
74658;SDS011;63186;51.204;6.536;2023-09-08T13:15:13;9.80;;;3.90;;
74658;SDS011;63186;51.204;6.536;2023-09-08T13:17:39;7.43;;;4.07;;
74658;SDS011;63186;51.204;6.536;2023-09-08T13:20:04;8.10;;;3.87;;
74658;SDS011;63186;51.204;6.536;2023-09-08T13:22:31;8.15;;;4.15;;
74658;SDS011;63186;51.204;6.536;2023-09-08T13:24:56;7.75;;;4.03;;
74658;SDS011;63186;51.204;6.536;2023-09-08T13:27:22;8.98;;;3.80;;
74658;SDS011;63186;51.204;6.536;2023-09-08T13:29:47;7.20;;;3.93;;
74658;SDS011;63186;51.204;6.536;2023-09-08T13:32:13;14.18;;;3.55;;
74658;SDS011;63186;51.204;6.536;2023-09-08T13:34:38;8.25;;;3.83;;
74658;SDS011;63186;51.204;6.536;2023-09-08T13:37:04;7.03;;;3.57;;
74658;SDS011;63186;51.204;6.536;2023-09-08T13:39:29;7.28;;;3.45;;
74658;SDS011;63186;51.204;6.536;2023-09-08T13:41:55;6.93;;;3.63;;
74658;SDS011;63186;51.204;6.536;2023-09-08T13:44:22;8.90;;;3.80;;
74658;SDS011;63186;51.204;6.536;2023-09-08T13:46:48;10.30;;;3.88;;
74658;SDS011;63186;51.204;6.536;2023-09-08T13:49:18;7.95;;;4.07;;
74658;SDS011;63186;51.204;6.536;2023-09-08T13:51:44;8.52;;;3.70;;
74658;SDS011;63186;51.204;6.536;2023-09-08T13:54:10;8.70;;;3.78;;
74658;SDS011;63186;51.204;6.536;2023-09-08T13:56:40;7.93;;;4.00;;
74658;SDS011;63186;51.204;6.536;2023-09-08T13:59:06;7.85;;;3.65;;
74658;SDS011;63186;51.204;6.536;2023-09-08T14:01:36;7.75;;;3.85;;
74658;SDS011;63186;51.204;6.536;2023-09-08T14:04:05;6.72;;;3.65;;
74658;SDS011;63186;51.204;6.536;2023-09-08T14:06:32;9.65;;;3.60;;
74658;SDS011;63186;51.204;6.536;2023-09-08T14:08:57;9.25;;;3.70;;
74658;SDS011;63186;51.204;6.536;2023-09-08T14:11:23;7.10;;;3.88;;
74658;SDS011;63186;51.204;6.536;2023-09-08T14:13:48;6.32;;;3.42;;
74658;SDS011;63186;51.204;6.536;2023-09-08T14:16:13;8.53;;;3.93;;
74658;SDS011;63186;51.204;6.536;2023-09-08T14:18:39;8.83;;;4.03;;
74658;SDS011;63186;51.204;6.536;2023-09-08T14:21:05;9.10;;;3.72;;
74658;SDS011;63186;51.204;6.536;2023-09-08T14:23:31;7.30;;;3.65;;
74658;SDS011;63186;51.204;6.536;2023-09-08T14:25:58;9.57;;;3.90;;
74658;SDS011;63186;51.204;6.536;2023-09-08T14:28:24;7.28;;;4.00;;
74658;SDS011;63186;51.204;6.536;2023-09-08T14:30:50;7.82;;;3.72;;
74658;SDS011;63186;51.204;6.536;2023-09-08T14:33:16;7.68;;;3.92;;
74658;SDS011;63186;51.204;6.536;2023-09-08T14:35:42;7.00;;;3.90;;
74658;SDS011;63186;51.204;6.536;2023-09-08T14:38:08;7.53;;;4.07;;
74658;SDS011;63186;51.204;6.536;2023-09-08T14:40:33;7.68;;;4.15;;
74658;SDS011;63186;51.204;6.536;2023-09-08T14:42:58;9.00;;;4.07;;
74658;SDS011;63186;51.204;6.536;2023-09-08T14:45:24;7.87;;;4.13;;
74658;SDS011;63186;51.204;6.536;2023-09-08T14:47:51;9.05;;;3.70;;
74658;SDS011;63186;51.204;6.536;2023-09-08T14:50:17;7.93;;;3.95;;
74658;SDS011;63186;51.204;6.536;2023-09-08T14:52:42;7.72;;;4.05;;
74658;SDS011;63186;51.204;6.536;2023-09-08T14:55:08;7.90;;;4.05;;
74658;SDS011;63186;51.204;6.536;2023-09-08T14:57:34;7.82;;;4.07;;
74658;SDS011;63186;51.204;6.536;2023-09-08T14:59:59;8.67;;;3.80;;
74658;SDS011;63186;51.204;6.536;2023-09-08T15:02:24;7.00;;;3.87;;
74658;SDS011;63186;51.204;6.536;2023-09-08T15:04:50;7.47;;;3.83;;